Time;durP1;ratioP1;P1;durP2;ratioP2;P2;SDS_P1;SDS_P2;PMS_P1;PMS_P2;Temp;Humidity;BMP_temperature;BMP_pressure;BME280_temperature;BME280_humidity;BME280_pressure;Samples;Min_cycle;Max_cycle;Signal;HPM_P1;HPM_P2
2022/02/22 00:00:46;;;;;;;5.43;1.57;;;;;;;;;;6071370;23;20574;-84
2022/02/22 00:03:51;;;;;;;6.27;1.60;;;;;;;;;;6125013;23;20496;-88
2022/02/22 00:06:56;;;;;;;5.07;1.40;;;;;;;;;;6090165;23;21040;-87
2022/02/22 00:10:04;;;;;;;5.47;1.10;;;;;;;;;;6080841;23;20582;-84
2022/02/22 00:13:09;;;;;;;2.73;1.23;;;;;;;;;;6091136;23;21028;-85
2022/02/22 00:16:22;;;;;;;5.70;1.43;;;;;;;;;;6091139;23;20508;-84
2022/02/22 00:19:34;;;;;;;6.50;1.77;;;;;;;;;;6108656;23;20512;-84
2022/02/22 00:22:39;;;;;;;4.17;1.13;;;;;;;;;;6097178;23;20602;-85
2022/02/22 00:25:43;;;;;;;3.80;1.30;;;;;;;;;;6073634;23;20511;-85
2022/02/22 00:28:47;;;;;;;5.20;1.40;;;;;;;;;;6089992;23;20520;-87
2022/02/22 00:31:52;;;;;;;3.97;1.60;;;;;;;;;;6099678;23;21137;-84
2022/02/22 00:34:56;;;;;;;4.23;1.73;;;;;;;;;;6081381;23;20559;-84
2022/02/22 00:38:02;;;;;;;3.30;1.00;;;;;;;;;;6093474;23;20507;-84
2022/02/22 00:41:06;;;;;;;4.63;1.40;;;;;;;;;;6080166;23;20593;-87
2022/02/22 00:44:17;;;;;;;6.83;1.57;;;;;;;;;;6121775;23;20499;-84
2022/02/22 00:47:21;;;;;;;8.13;1.67;;;;;;;;;;6102084;23;20507;-86
2022/02/22 00:50:28;;;;;;;1.70;1.10;;;;;;;;;;6083858;23;20888;-87
2022/02/22 00:53:33;;;;;;;5.57;1.27;;;;;;;;;;6085628;23;20502;-87
2022/02/22 00:56:36;;;;;;;4.37;1.33;;;;;;;;;;6103102;23;20154;-84
2022/02/22 00:59:41;;;;;;;5.60;1.40;;;;;;;;;;6103783;23;20511;-84
2022/02/22 01:02:55;;;;;;;6.10;1.40;;;;;;;;;;6121207;23;20178;-88
2022/02/22 01:06:00;;;;;;;5.27;1.40;;;;;;;;;;6136260;23;20507;-86
2022/02/22 01:09:06;;;;;;;2.97;1.20;;;;;;;;;;6093234;23;20562;-84
2022/02/22 01:12:17;;;;;;;7.87;1.60;;;;;;;;;;6104106;23;20510;-84
2022/02/22 01:15:21;;;;;;;4.47;1.33;;;;;;;;;;6119132;23;20503;-88
2022/02/22 01:18:33;;;;;;;6.63;1.40;;;;;;;;;;6102790;23;20150;-87
2022/02/22 01:21:52;;;;;;;4.83;1.77;;;;;;;;;;6109394;23;20916;-87
2022/02/22 01:24:59;;;;;;;6.57;1.50;;;;;;;;;;6077125;23;20872;-88
2022/02/22 01:28:03;;;;;;;5.90;1.50;;;;;;;;;;6087507;23;20502;-86
2022/02/22 01:31:07;;;;;;;7.70;1.57;;;;;;;;;;6097743;23;20577;-86
2022/02/22 01:34:11;;;;;;;3.83;1.73;;;;;;;;;;6105054;23;20506;-88
2022/02/22 01:37:15;;;;;;;4.47;1.40;;;;;;;;;;6077890;23;20550;-86
2022/02/22 01:40:19;;;;;;;3.77;1.53;;;;;;;;;;6094388;23;20613;-85
2022/02/22 01:43:49;;;;;;;5.27;1.40;;;;;;;;;;6058559;23;20567;-87
2022/02/22 01:47:00;;;;;;;8.60;2.00;;;;;;;;;;6091323;23;20151;-85
2022/02/22 01:50:05;;;;;;;6.43;1.50;;;;;;;;;;6073885;23;20570;-85
2022/02/22 01:53:10;;;;;;;3.87;1.53;;;;;;;;;;6075898;23;21016;-84
2022/02/22 01:56:17;;;;;;;3.73;1.30;;;;;;;;;;6060946;23;20503;-84
2022/02/22 01:59:22;;;;;;;4.03;1.57;;;;;;;;;;6076083;23;20515;-86
2022/02/22 02:02:26;;;;;;;4.77;1.53;;;;;;;;;;6075185;23;20558;-85
2022/02/22 02:05:30;;;;;;;2.00;1.10;;;;;;;;;;6059161;23;20511;-84
2022/02/22 02:08:34;;;;;;;5.77;1.50;;;;;;;;;;6058270;23;20507;-86
2022/02/22 02:11:55;;;;;;;4.47;1.87;;;;;;;;;;6067062;23;20578;-87
2022/02/22 02:14:59;;;;;;;4.17;1.60;;;;;;;;;;6091455;23;20511;-87
2022/02/22 02:18:04;;;;;;;4.77;1.67;;;;;;;;;;6058814;23;20507;-84
2022/02/22 02:21:08;;;;;;;2.57;1.40;;;;;;;;;;6070373;23;20212;-84
2022/02/22 02:24:21;;;;;;;7.47;1.90;;;;;;;;;;6075628;23;20563;-85
2022/02/22 02:27:26;;;;;;;9.13;1.90;;;;;;;;;;6074383;23;20508;-87
2022/02/22 02:30:31;;;;;;;4.37;1.13;;;;;;;;;;6055272;23;20582;-84
2022/02/22 02:33:35;;;;;;;4.33;1.37;;;;;;;;;;6058406;23;20507;-85
2022/02/22 02:36:43;;;;;;;3.63;1.57;;;;;;;;;;6048751;23;20559;-85
2022/02/22 02:39:47;;;;;;;3.33;1.60;;;;;;;;;;6058869;23;20507;-84
2022/02/22 02:42:52;;;;;;;4.37;1.50;;;;;;;;;;6058934;23;21083;-84
2022/02/22 02:45:56;;;;;;;3.73;1.17;;;;;;;;;;6065593;23;21112;-87
2022/02/22 02:49:00;;;;;;;4.87;1.73;;;;;;;;;;6081640;23;20558;-87
2022/02/22 02:52:06;;;;;;;7.87;1.50;;;;;;;;;;6049929;23;20866;-86
2022/02/22 02:55:10;;;;;;;4.30;1.63;;;;;;;;;;6059756;23;20507;-83
2022/02/22 02:58:14;;;;;;;3.87;1.80;;;;;;;;;;6058778;23;20507;-86
2022/02/22 03:01:19;;;;;;;6.03;2.27;;;;;;;;;;6052748;23;20893;-84
2022/02/22 03:04:23;;;;;;;3.67;1.40;;;;;;;;;;6076391;23;20563;-84
2022/02/22 03:07:28;;;;;;;7.50;2.00;;;;;;;;;;6076519;23;20507;-83
2022/02/22 03:10:32;;;;;;;5.23;1.63;;;;;;;;;;6072638;23;20586;-84
2022/02/22 03:13:37;;;;;;;4.37;1.40;;;;;;;;;;6093037;23;20504;-84
2022/02/22 03:16:41;;;;;;;9.97;1.60;;;;;;;;;;6059447;23;20515;-83
2022/02/22 03:19:45;;;;;;;5.50;1.60;;;;;;;;;;6059203;23;20507;-84
2022/02/22 03:22:53;;;;;;;5.00;1.47;;;;;;;;;;6065931;23;20603;-84
2022/02/22 03:25:59;;;;;;;6.27;1.70;;;;;;;;;;6059085;23;20507;-83
2022/02/22 03:29:13;;;;;;;7.77;1.97;;;;;;;;;;6065892;23;20559;-83
2022/02/22 03:32:23;;;;;;;4.97;1.37;;;;;;;;;;6092439;23;20503;-84
2022/02/22 03:35:28;;;;;;;5.03;1.93;;;;;;;;;;6059642;23;20511;-84
2022/02/22 03:38:32;;;;;;;4.20;1.60;;;;;;;;;;6075616;23;20503;-83
2022/02/22 03:41:37;;;;;;;7.03;1.40;;;;;;;;;;6067222;23;21154;-83
2022/02/22 03:44:41;;;;;;;5.33;1.77;;;;;;;;;;6058747;23;20503;-84
2022/02/22 03:47:45;;;;;;;5.13;1.30;;;;;;;;;;6075826;23;20503;-83
2022/02/22 03:50:50;;;;;;;4.20;1.20;;;;;;;;;;6049545;23;20591;-83
2022/02/22 03:53:55;;;;;;;3.70;1.43;;;;;;;;;;6081594;23;20559;-83
2022/02/22 03:57:02;;;;;;;4.40;1.13;;;;;;;;;;6091818;23;20507;-84
2022/02/22 04:00:14;;;;;;;3.57;1.30;;;;;;;;;;6081489;23;20587;-84
2022/02/22 04:03:22;;;;;;;9.87;1.57;;;;;;;;;;6074977;23;20563;-84
2022/02/22 04:06:42;;;;;;;5.07;1.40;;;;;;;;;;6080903;23;21013;-84
2022/02/22 04:09:46;;;;;;;6.37;1.67;;;;;;;;;;6074383;23;21036;-84
2022/02/22 04:12:50;;;;;;;4.87;1.30;;;;;;;;;;6049311;23;20554;-83
2022/02/22 04:15:57;;;;;;;5.73;1.50;;;;;;;;;;6091665;23;20511;-83
2022/02/22 04:19:02;;;;;;;3.47;1.40;;;;;;;;;;6075649;23;20520;-83
2022/02/22 04:22:06;;;;;;;8.57;1.50;;;;;;;;;;6091535;23;20507;-83
2022/02/22 04:25:11;;;;;;;10.63;1.90;;;;;;;;;;6075822;23;20499;-83
2022/02/22 04:28:15;;;;;;;6.43;1.40;;;;;;;;;;6075415;23;20507;-83
2022/02/22 04:31:20;;;;;;;7.57;1.80;;;;;;;;;;6101655;23;20586;-83
2022/02/22 04:34:24;;;;;;;7.80;2.13;;;;;;;;;;6058564;23;20515;-83
2022/02/22 04:37:28;;;;;;;5.77;1.37;;;;;;;;;;6081767;23;20562;-84
2022/02/22 04:40:32;;;;;;;9.20;2.47;;;;;;;;;;6055552;23;20610;-83
2022/02/22 04:43:37;;;;;;;6.83;1.70;;;;;;;;;;6075112;23;20567;-83
2022/02/22 04:46:41;;;;;;;7.20;1.50;;;;;;;;;;6074776;23;21039;-83
2022/02/22 04:49:45;;;;;;;6.57;1.50;;;;;;;;;;6106741;23;20512;-84
2022/02/22 04:52:49;;;;;;;5.30;1.60;;;;;;;;;;6090045;23;20507;-87
2022/02/22 04:55:53;;;;;;;9.87;1.97;;;;;;;;;;6073382;23;20507;-87
2022/02/22 04:58:58;;;;;;;9.37;1.77;;;;;;;;;;6091223;23;20511;-87
2022/02/22 05:02:02;;;;;;;8.40;1.70;;;;;;;;;;6047955;23;20578;-84
2022/02/22 05:05:07;;;;;;;6.07;1.47;;;;;;;;;;6074688;23;21020;-84
2022/02/22 05:08:11;;;;;;;7.40;2.00;;;;;;;;;;6060197;23;20504;-85
2022/02/22 05:11:16;;;;;;;3.93;1.47;;;;;;;;;;6052763;23;20586;-87
2022/02/22 05:14:21;;;;;;;5.07;1.90;;;;;;;;;;6092922;23;20503;-85
2022/02/22 05:17:27;;;;;;;4.20;1.53;;;;;;;;;;6108317;23;20855;-87
2022/02/22 05:20:31;;;;;;;3.33;1.43;;;;;;;;;;6099822;23;20903;-83
2022/02/22 05:23:35;;;;;;;6.37;1.50;;;;;;;;;;6049823;23;20606;-87
2022/02/22 05:26:39;;;;;;;3.53;1.37;;;;;;;;;;6100886;23;20566;-87
2022/02/22 05:29:44;;;;;;;11.27;1.60;;;;;;;;;;6049637;23;20558;-86
2022/02/22 05:32:48;;;;;;;4.07;1.27;;;;;;;;;;6074999;23;21020;-85
2022/02/22 05:35:54;;;;;;;7.93;1.60;;;;;;;;;;6092553;23;20507;-87
2022/02/22 05:39:01;;;;;;;5.43;1.57;;;;;;;;;;6074911;23;20511;-87
2022/02/22 05:42:06;;;;;;;8.27;1.53;;;;;;;;;;6083303;23;20558;-84
2022/02/22 05:45:11;;;;;;;9.23;1.77;;;;;;;;;;6066714;23;20610;-84
2022/02/22 05:48:15;;;;;;;5.90;1.53;;;;;;;;;;6050143;23;20563;-83
2022/02/22 05:51:19;;;;;;;8.67;1.43;;;;;;;;;;6087397;23;20578;-84
2022/02/22 05:54:23;;;;;;;6.23;1.50;;;;;;;;;;6076480;23;20814;-83
2022/02/22 05:57:28;;;;;;;5.03;1.57;;;;;;;;;;6082610;23;21096;-87
2022/02/22 06:00:32;;;;;;;7.07;1.67;;;;;;;;;;6055915;23;20582;-87
2022/02/22 06:03:36;;;;;;;8.70;1.60;;;;;;;;;;6092625;23;20563;-84
2022/02/22 06:06:41;;;;;;;4.53;1.40;;;;;;;;;;6082380;23;20558;-84
2022/02/22 06:09:45;;;;;;;17.23;2.20;;;;;;;;;;6066393;23;20554;-85
2022/02/22 06:12:49;;;;;;;8.23;1.67;;;;;;;;;;6076398;23;20507;-85
2022/02/22 06:15:53;;;;;;;13.87;1.73;;;;;;;;;;6059981;23;20503;-84
2022/02/22 06:18:57;;;;;;;10.07;1.90;;;;;;;;;;6076400;23;20814;-85
2022/02/22 06:22:02;;;;;;;7.60;2.07;;;;;;;;;;6082499;23;20583;-85
2022/02/22 06:25:09;;;;;;;5.80;1.80;;;;;;;;;;6066309;23;20909;-85
2022/02/22 06:28:16;;;;;;;10.00;1.57;;;;;;;;;;6076769;23;20511;-85
2022/02/22 06:31:20;;;;;;;11.30;2.17;;;;;;;;;;6081527;23;20586;-85
2022/02/22 06:34:25;;;;;;;40.07;17.97;;;;;;;;;;6081407;23;20546;-85
2022/02/22 06:37:31;;;;;;;7.87;1.97;;;;;;;;;;6074368;23;20518;-85
2022/02/22 06:40:37;;;;;;;7.40;1.63;;;;;;;;;;6087014;23;20594;-85
2022/02/22 06:43:43;;;;;;;11.63;2.10;;;;;;;;;;6081717;23;20606;-85
2022/02/22 06:47:22;;;;;;;11.03;2.43;;;;;;;;;;6107331;23;20511;-87
2022/02/22 06:51:26;;;;;;;11.07;2.33;;;;;;;;;;6054498;23;20583;-87
2022/02/22 06:55:29;;;;;;;8.03;2.00;;;;;;;;;;6099305;23;20547;-87
2022/02/22 06:59:59;;;;;;;6.90;2.60;;;;;;;;;;6106654;23;20567;-87
2022/02/22 07:04:14;;;;;;;11.40;2.07;;;;;;;;;;6072069;23;20619;-87
2022/02/22 07:07:22;;;;;;;9.70;2.30;;;;;;;;;;6074802;23;20566;-87
2022/02/22 07:10:28;;;;;;;8.23;1.80;;;;;;;;;;6087403;23;20583;-87
2022/02/22 07:13:32;;;;;;;7.57;1.97;;;;;;;;;;6090870;23;20512;-87
2022/02/22 07:16:37;;;;;;;6.77;2.30;;;;;;;;;;6108276;23;20507;-87
2022/02/22 07:19:41;;;;;;;6.80;2.20;;;;;;;;;;6106830;23;20511;-87
2022/02/22 07:22:46;;;;;;;9.03;2.03;;;;;;;;;;6106662;23;20512;-87
2022/02/22 07:25:50;;;;;;;8.40;1.87;;;;;;;;;;6080690;23;20562;-87
2022/02/22 07:28:54;;;;;;;10.07;2.00;;;;;;;;;;6080525;23;21119;-86
2022/02/22 07:31:59;;;;;;;10.17;2.07;;;;;;;;;;6097848;23;20586;-87
2022/02/22 07:35:04;;;;;;;8.63;1.73;;;;;;;;;;6073555;23;20519;-87
2022/02/22 07:38:09;;;;;;;8.20;1.70;;;;;;;;;;6080786;23;20562;-87
2022/02/22 07:41:22;;;;;;;8.37;2.00;;;;;;;;;;6084452;23;21154;-88
2022/02/22 07:44:29;;;;;;;10.53;2.20;;;;;;;;;;6106602;23;21119;-86
2022/02/22 07:47:33;;;;;;;10.43;3.00;;;;;;;;;;6073469;23;20499;-87
2022/02/22 07:50:38;;;;;;;6.10;1.60;;;;;;;;;;6069444;23;20586;-87
2022/02/22 07:53:43;;;;;;;9.07;1.90;;;;;;;;;;6056862;23;20507;-87
2022/02/22 07:56:47;;;;;;;8.70;1.90;;;;;;;;;;6106676;23;20503;-87
2022/02/22 07:59:51;;;;;;;6.63;1.93;;;;;;;;;;6056067;23;20507;-87
2022/02/22 08:02:56;;;;;;;6.43;1.53;;;;;;;;;;6090062;23;20159;-87
2022/02/22 08:06:21;;;;;;;7.23;1.87;;;;;;;;;;6058228;23;20155;-85
2022/02/22 08:09:25;;;;;;;5.77;2.07;;;;;;;;;;6082707;23;20179;-85
2022/02/22 08:12:30;;;;;;;8.70;2.20;;;;;;;;;;6080979;23;20631;-85
2022/02/22 08:15:34;;;;;;;8.33;2.43;;;;;;;;;;6048418;23;20170;-84
2022/02/22 08:18:38;;;;;;;6.50;2.07;;;;;;;;;;6049261;23;20170;-87
2022/02/22 08:22:36;;;;;;;7.67;2.07;;;;;;;;;;6047276;23;20190;-87
2022/02/22 08:26:28;;;;;;;13.37;6.23;;;;;;;;;;6073455;23;20159;-87
2022/02/22 08:29:35;;;;;;;12.63;6.73;;;;;;;;;;6074650;23;20159;-84
2022/02/22 08:32:40;;;;;;;7.80;2.77;;;;;;;;;;6091878;23;20163;-87
2022/02/22 08:35:44;;;;;;;8.17;1.80;;;;;;;;;;6057466;23;20151;-85
2022/02/22 08:38:52;;;;;;;4.70;1.57;;;;;;;;;;6058475;23;20622;-85
2022/02/22 08:41:56;;;;;;;8.33;1.70;;;;;;;;;;6090267;23;20193;-85
2022/02/22 08:45:00;;;;;;;11.40;1.97;;;;;;;;;;6095588;23;20189;-85
2022/02/22 08:48:04;;;;;;;9.33;2.03;;;;;;;;;;6140260;23;20157;-86
2022/02/22 08:51:08;;;;;;;7.80;2.00;;;;;;;;;;6112287;23;20496;-87
2022/02/22 08:54:12;;;;;;;6.00;1.80;;;;;;;;;;6113078;23;20162;-88
2022/02/22 08:57:20;;;;;;;5.50;1.90;;;;;;;;;;6124083;23;20158;-84
2022/02/22 09:00:31;;;;;;;6.10;1.93;;;;;;;;;;6121387;23;20197;-84
2022/02/22 09:03:39;;;;;;;7.50;1.70;;;;;;;;;;6140164;23;20158;-85
2022/02/22 09:06:43;;;;;;;7.90;1.70;;;;;;;;;;6155885;23;20158;-87
2022/02/22 09:09:47;;;;;;;8.83;1.73;;;;;;;;;;6129180;23;20166;-85
2022/02/22 09:12:51;;;;;;;7.60;1.93;;;;;;;;;;6107907;23;20158;-84
2022/02/22 09:16:20;;;;;;;6.80;1.87;;;;;;;;;;6139582;23;20154;-86
2022/02/22 09:19:25;;;;;;;7.50;1.77;;;;;;;;;;6138420;23;20158;-86
2022/02/22 09:22:29;;;;;;;8.67;1.80;;;;;;;;;;6122891;23;20158;-88
2022/02/22 09:25:35;;;;;;;9.17;1.70;;;;;;;;;;6138674;23;20190;-88
2022/02/22 09:28:39;;;;;;;8.40;2.23;;;;;;;;;;6142034;23;20453;-85
2022/02/22 09:31:43;;;;;;;6.70;2.20;;;;;;;;;;6100884;23;20193;-85
2022/02/22 09:34:47;;;;;;;7.90;3.00;;;;;;;;;;6139024;23;20595;-84
2022/02/22 09:37:51;;;;;;;7.93;2.73;;;;;;;;;;6142806;23;20158;-86
2022/02/22 09:40:57;;;;;;;13.47;4.53;;;;;;;;;;6116238;23;20195;-86
2022/02/22 09:44:34;;;;;;;14.77;6.37;;;;;;;;;;6059714;23;20155;-86
2022/02/22 09:47:40;;;;;;;9.83;2.70;;;;;;;;;;6092618;23;20466;-86
2022/02/22 09:50:44;;;;;;;9.93;3.00;;;;;;;;;;6055069;23;20191;-87
2022/02/22 09:54:23;;;;;;;9.00;2.20;;;;;;;;;;6078037;23;20155;-85
2022/02/22 09:57:28;;;;;;;11.10;2.27;;;;;;;;;;6074763;23;20155;-88
2022/02/22 10:00:37;;;;;;;6.80;2.00;;;;;;;;;;6054595;23;20194;-86
2022/02/22 10:04:31;;;;;;;7.63;2.33;;;;;;;;;;6094900;23;20159;-85
2022/02/22 10:08:07;;;;;;;12.60;3.40;;;;;;;;;;6062312;23;20159;-87
2022/02/22 10:11:15;;;;;;;6.33;2.80;;;;;;;;;;6080925;23;20199;-87
2022/02/22 10:14:25;;;;;;;6.63;3.00;;;;;;;;;;6050565;23;20167;-85
2022/02/22 10:21:27;;;;;;;7.77;2.23;;;;;;;;;;6067227;23;20190;-87
2022/02/22 10:24:31;;;;;;;5.30;2.17;;;;;;;;;;6091122;23;20187;-87
2022/02/22 10:33:05;;;;;;;9.37;1.93;;;;;;;;;;6108090;23;20159;-88
2022/02/22 10:36:48;;;;;;;6.07;2.33;;;;;;;;;;6107085;23;20155;-88
2022/02/22 10:40:02;;;;;;;9.30;2.20;;;;;;;;;;6064036;23;20628;-87
2022/02/22 10:43:08;;;;;;;8.27;1.80;;;;;;;;;;6093483;23;20164;-84
2022/02/22 10:46:12;;;;;;;4.57;1.60;;;;;;;;;;6076529;23;20497;-84
2022/02/22 10:49:18;;;;;;;8.77;1.60;;;;;;;;;;6077037;23;20159;-84
2022/02/22 10:52:57;;;;;;;11.10;1.60;;;;;;;;;;6093102;23;20155;-84
2022/02/22 11:00:17;;;;;;;5.40;1.93;;;;;;;;;;6081847;23;20191;-84
2022/02/22 11:03:21;;;;;;;7.57;1.80;;;;;;;;;;6049829;23;20167;-84
2022/02/22 11:06:52;;;;;;;8.57;2.40;;;;;;;;;;6076449;23;20183;-84
2022/02/22 11:09:58;;;;;;;8.30;2.13;;;;;;;;;;6091778;23;20159;-85
2022/02/22 11:13:03;;;;;;;6.50;1.80;;;;;;;;;;6067043;23;20178;-84
2022/02/22 11:16:25;;;;;;;8.87;1.97;;;;;;;;;;6067654;23;20167;-85
2022/02/22 11:20:16;;;;;;;7.43;1.80;;;;;;;;;;6092770;23;20159;-85
2022/02/22 11:24:12;;;;;;;6.17;1.50;;;;;;;;;;6110154;23;20150;-85
2022/02/22 11:27:31;;;;;;;6.50;1.50;;;;;;;;;;6062106;23;20159;-85
2022/02/22 11:34:55;;;;;;;6.00;1.57;;;;;;;;;;6112222;23;20148;-85
2022/02/22 11:38:27;;;;;;;6.37;2.00;;;;;;;;;;6073960;23;20159;-88
2022/02/22 11:41:41;;;;;;;6.07;1.70;;;;;;;;;;6094072;23;20194;-88
2022/02/22 11:45:12;;;;;;;5.30;1.63;;;;;;;;;;6102944;23;20159;-88
2022/02/22 11:48:25;;;;;;;8.57;1.67;;;;;;;;;;6103134;23;20155;-88
2022/02/22 11:51:39;;;;;;;8.47;1.60;;;;;;;;;;6095911;23;20194;-87
2022/02/22 11:54:44;;;;;;;6.73;2.10;;;;;;;;;;6119372;23;20155;-88
2022/02/22 11:57:51;;;;;;;7.97;1.80;;;;;;;;;;6102365;23;20158;-88
2022/02/22 12:01:04;;;;;;;7.77;2.10;;;;;;;;;;6114349;23;20194;-87
2022/02/22 12:04:18;;;;;;;5.40;1.93;;;;;;;;;;6126283;23;20174;-88
2022/02/22 12:07:34;;;;;;;5.30;1.80;;;;;;;;;;6119195;23;20154;-88
2022/02/22 12:10:55;;;;;;;7.50;1.70;;;;;;;;;;6114899;23;20190;-87
2022/02/22 12:14:10;;;;;;;5.47;1.40;;;;;;;;;;6102214;23;20159;-88
2022/02/22 12:17:15;;;;;;;5.17;1.70;;;;;;;;;;6135984;23;20150;-88
2022/02/22 12:20:25;;;;;;;4.77;1.80;;;;;;;;;;6099275;23;20194;-87
2022/02/22 12:23:29;;;;;;;3.10;1.30;;;;;;;;;;6108987;23;20173;-88
2022/02/22 12:26:39;;;;;;;5.00;1.40;;;;;;;;;;6102710;23;20182;-87
2022/02/22 12:29:43;;;;;;;6.30;1.53;;;;;;;;;;6118503;23;20154;-87
2022/02/22 12:32:50;;;;;;;5.47;1.60;;;;;;;;;;6135478;23;20154;-87
2022/02/22 12:35:54;;;;;;;5.07;1.53;;;;;;;;;;6108355;23;20170;-87
2022/02/22 12:39:03;;;;;;;6.03;1.70;;;;;;;;;;6102046;23;20154;-88
2022/02/22 12:42:08;;;;;;;7.23;1.37;;;;;;;;;;6109325;23;20173;-88
2022/02/22 12:45:14;;;;;;;6.37;1.83;;;;;;;;;;6109133;23;20194;-87
2022/02/22 12:48:22;;;;;;;4.00;1.30;;;;;;;;;;6118799;23;20154;-87
2022/02/22 12:51:30;;;;;;;5.53;1.83;;;;;;;;;;6093133;23;20194;-88
2022/02/22 12:54:35;;;;;;;6.60;1.60;;;;;;;;;;6118955;23;20158;-88
2022/02/22 12:57:40;;;;;;;6.07;1.63;;;;;;;;;;6135877;23;20154;-88
2022/02/22 13:00:46;;;;;;;6.00;1.53;;;;;;;;;;6148138;23;20492;-88
2022/02/22 13:03:57;;;;;;;6.57;2.50;;;;;;;;;;6125672;23;20497;-87
2022/02/22 13:07:11;;;;;;;6.37;3.30;;;;;;;;;;6108878;23;20194;-87
2022/02/22 13:10:17;;;;;;;4.07;2.00;;;;;;;;;;6116106;23;20194;-87
2022/02/22 13:13:25;;;;;;;8.73;2.77;;;;;;;;;;6092605;23;20169;-87
2022/02/22 13:16:29;;;;;;;3.73;1.30;;;;;;;;;;6135729;23;20597;-87
2022/02/22 13:19:35;;;;;;;4.77;1.20;;;;;;;;;;6101874;23;20588;-87
2022/02/22 13:22:40;;;;;;;6.17;1.73;;;;;;;;;;6102110;23;20150;-87
2022/02/22 13:25:56;;;;;;;5.53;1.13;;;;;;;;;;6135905;23;20186;-87
2022/02/22 13:29:00;;;;;;;2.37;1.10;;;;;;;;;;6094777;23;20170;-87
2022/02/22 13:32:10;;;;;;;2.50;1.10;;;;;;;;;;6110312;23;20655;-87
2022/02/22 13:35:21;;;;;;;3.77;1.20;;;;;;;;;;6103752;23;20158;-87
2022/02/22 13:38:27;;;;;;;3.77;1.30;;;;;;;;;;6105136;23;20154;-87
2022/02/22 13:41:35;;;;;;;3.67;1.30;;;;;;;;;;6095806;23;20627;-87
2022/02/22 13:44:39;;;;;;;7.73;1.33;;;;;;;;;;6103723;23;20158;-87
2022/02/22 13:47:44;;;;;;;2.83;1.20;;;;;;;;;;6103917;23;20154;-88
2022/02/22 13:50:48;;;;;;;4.77;1.50;;;;;;;;;;6132012;23;20194;-87
2022/02/22 13:53:54;;;;;;;5.80;1.20;;;;;;;;;;6154393;23;20154;-87
2022/02/22 13:57:00;;;;;;;4.33;1.60;;;;;;;;;;6120306;23;20155;-87
2022/02/22 14:00:06;;;;;;;6.27;1.43;;;;;;;;;;6102126;23;20194;-86
2022/02/22 14:03:10;;;;;;;3.47;1.43;;;;;;;;;;6103395;23;20159;-86
2022/02/22 14:06:14;;;;;;;5.27;1.57;;;;;;;;;;6119617;23;20186;-86
2022/02/22 14:09:19;;;;;;;4.53;1.30;;;;;;;;;;6110224;23;20623;-88
2022/02/22 14:12:28;;;;;;;4.70;1.60;;;;;;;;;;6119907;23;20158;-86
2022/02/22 14:16:00;;;;;;;3.93;1.20;;;;;;;;;;6104047;23;20154;-87
2022/02/22 14:19:17;;;;;;;4.03;1.50;;;;;;;;;;6119554;23;20158;-87
2022/02/22 14:22:28;;;;;;;5.53;1.60;;;;;;;;;;6120557;23;20158;-89
2022/02/22 14:25:50;;;;;;;4.23;1.10;;;;;;;;;;6120662;23;20158;-87
2022/02/22 14:28:59;;;;;;;4.23;1.37;;;;;;;;;;6137211;23;20151;-87
2022/02/22 14:32:03;;;;;;;3.27;1.70;;;;;;;;;;6110210;23;20493;-88
2022/02/22 14:39:26;;;;;;;6.40;2.07;;;;;;;;;;6119332;23;20185;-87
2022/02/22 14:43:09;;;;;;;2.93;1.60;;;;;;;;;;6119623;23;20457;-87
2022/02/22 14:46:14;;;;;;;4.73;1.60;;;;;;;;;;6119961;23;20186;-87
2022/02/22 14:49:51;;;;;;;4.23;1.47;;;;;;;;;;6120055;23;20158;-87
2022/02/22 14:53:31;;;;;;;8.30;1.80;;;;;;;;;;6136647;23;20162;-87
2022/02/22 14:57:15;;;;;;;5.80;1.63;;;;;;;;;;6119831;23;20154;-87
2022/02/22 15:00:36;;;;;;;1.27;1.00;;;;;;;;;;6135164;23;20186;-86
2022/02/22 15:03:45;;;;;;;4.00;1.07;;;;;;;;;;6119120;23;20158;-86
2022/02/22 15:06:51;;;;;;;4.37;1.50;;;;;;;;;;6126562;23;20229;-86
2022/02/22 15:09:55;;;;;;;7.07;2.43;;;;;;;;;;6110340;23;20489;-86
2022/02/22 15:13:09;;;;;;;5.20;4.70;;;;;;;;;;6120384;23;20465;-86
2022/02/22 15:16:48;;;;;;;7.93;2.80;;;;;;;;;;6136339;23;20470;-86
2022/02/22 15:19:54;;;;;;;5.23;1.50;;;;;;;;;;6093648;23;20178;-86
2022/02/22 15:23:09;;;;;;;4.77;1.50;;;;;;;;;;6099462;23;20171;-86
2022/02/22 15:26:44;;;;;;;4.23;1.57;;;;;;;;;;6136060;23;20186;-88
2022/02/22 15:29:54;;;;;;;3.37;1.07;;;;;;;;;;6119691;23;20150;-88
2022/02/22 15:33:00;;;;;;;4.00;1.07;;;;;;;;;;6119386;23;20162;-88
2022/02/22 15:36:15;;;;;;;4.13;2.20;;;;;;;;;;6120405;23;20600;-87
2022/02/22 15:39:21;;;;;;;5.30;1.70;;;;;;;;;;6119577;23;20158;-88
2022/02/22 15:42:27;;;;;;;2.93;1.20;;;;;;;;;;6119937;23;20158;-87
2022/02/22 15:45:33;;;;;;;4.63;1.50;;;;;;;;;;6119040;23;20158;-87
2022/02/22 15:48:49;;;;;;;3.90;1.60;;;;;;;;;;6120160;23;20158;-86
2022/02/22 15:51:59;;;;;;;3.83;1.30;;;;;;;;;;6126964;23;20194;-86
2022/02/22 15:55:25;;;;;;;3.07;1.30;;;;;;;;;;6119563;23;20163;-86
2022/02/22 15:58:29;;;;;;;4.47;1.70;;;;;;;;;;6111244;23;20173;-86
2022/02/22 16:02:02;;;;;;;4.87;1.27;;;;;;;;;;6110984;23;20190;-85
2022/02/22 16:05:10;;;;;;;6.70;1.53;;;;;;;;;;6102123;23;20151;-86
2022/02/22 16:08:46;;;;;;;6.80;1.10;;;;;;;;;;6135787;23;20162;-85
2022/02/22 16:11:51;;;;;;;3.70;1.23;;;;;;;;;;6093659;23;20194;-85
2022/02/22 16:14:56;;;;;;;2.60;1.23;;;;;;;;;;6092847;23;20170;-86
2022/02/22 16:18:01;;;;;;;4.40;1.80;;;;;;;;;;6118203;23;20150;-86
2022/02/22 16:21:09;;;;;;;3.13;1.60;;;;;;;;;;6112880;23;20194;-86
2022/02/22 16:24:15;;;;;;;5.63;2.07;;;;;;;;;;6118631;23;20154;-85
2022/02/22 16:27:28;;;;;;;9.97;4.47;;;;;;;;;;6120643;23;20186;-86
2022/02/22 16:30:36;;;;;;;9.33;4.60;;;;;;;;;;6115254;23;20190;-85
2022/02/22 16:34:25;;;;;;;3.43;1.73;;;;;;;;;;6135675;23;20154;-85
2022/02/22 16:37:30;;;;;;;7.37;2.93;;;;;;;;;;6101741;23;20154;-86
2022/02/22 16:40:37;;;;;;;4.10;1.80;;;;;;;;;;6106207;23;20198;-86
2022/02/22 16:43:42;;;;;;;3.40;1.70;;;;;;;;;;6155794;23;20216;-88
2022/02/22 16:46:46;;;;;;;5.33;2.90;;;;;;;;;;6160813;23;20177;-90
2022/02/22 16:49:51;;;;;;;11.43;7.27;;;;;;;;;;6161420;23;20156;-86
2022/02/22 16:52:55;;;;;;;11.03;8.93;;;;;;;;;;6142744;23;20193;-88
2022/02/22 16:56:00;;;;;;;9.33;3.97;;;;;;;;;;6131201;23;20460;-89
2022/02/22 16:59:04;;;;;;;5.57;3.00;;;;;;;;;;6131142;23;20150;-89
2022/02/22 17:02:08;;;;;;;4.70;1.80;;;;;;;;;;6122859;23;20197;-88
2022/02/22 17:05:12;;;;;;;6.47;2.50;;;;;;;;;;6106369;23;20169;-87
2022/02/22 17:08:17;;;;;;;5.63;2.63;;;;;;;;;;6150004;23;20182;-88
2022/02/22 17:11:21;;;;;;;6.87;2.40;;;;;;;;;;6116671;23;20599;-88
2022/02/22 17:14:25;;;;;;;10.03;6.03;;;;;;;;;;6140008;23;20174;-88
2022/02/22 17:17:29;;;;;;;10.33;2.80;;;;;;;;;;6150258;23;20154;-88
2022/02/22 17:20:33;;;;;;;14.60;5.37;;;;;;;;;;6151805;23;20158;-86
2022/02/22 17:23:38;;;;;;;13.30;6.00;;;;;;;;;;6143565;23;20193;-86
2022/02/22 17:26:42;;;;;;;14.03;5.10;;;;;;;;;;6151438;23;20480;-87
2022/02/22 17:29:48;;;;;;;4.03;2.30;;;;;;;;;;6124436;23;20630;-87
2022/02/22 17:32:53;;;;;;;5.50;2.93;;;;;;;;;;6128921;23;20193;-86
2022/02/22 17:36:01;;;;;;;7.57;1.70;;;;;;;;;;6151694;23;20173;-86
2022/02/22 17:39:06;;;;;;;7.50;2.57;;;;;;;;;;6135632;23;20154;-86
2022/02/22 17:42:10;;;;;;;7.03;2.10;;;;;;;;;;6106393;23;20201;-87
2022/02/22 17:45:14;;;;;;;12.73;2.83;;;;;;;;;;6133279;23;20154;-87
2022/02/22 17:48:19;;;;;;;8.57;2.10;;;;;;;;;;6134873;23;20186;-86
2022/02/22 17:51:23;;;;;;;14.60;2.57;;;;;;;;;;6118423;23;20157;-86
2022/02/22 17:54:31;;;;;;;3.93;1.90;;;;;;;;;;6117584;23;20175;-86
2022/02/22 17:57:36;;;;;;;9.53;2.23;;;;;;;;;;6108572;23;20169;-86
2022/02/22 18:00:40;;;;;;;8.20;2.50;;;;;;;;;;6151579;23;20158;-86
2022/02/22 18:03:44;;;;;;;8.07;2.40;;;;;;;;;;6108361;23;20193;-86
2022/02/22 18:06:48;;;;;;;9.90;2.47;;;;;;;;;;6153195;23;20186;-86
2022/02/22 18:09:52;;;;;;;8.83;2.57;;;;;;;;;;6110261;23;20173;-87
2022/02/22 18:12:57;;;;;;;15.30;3.07;;;;;;;;;;6129120;23;20189;-87
2022/02/22 18:16:02;;;;;;;5.87;2.40;;;;;;;;;;6134908;23;20465;-86
2022/02/22 18:19:07;;;;;;;9.67;2.10;;;;;;;;;;6151754;23;20456;-87
2022/02/22 18:22:12;;;;;;;10.03;3.10;;;;;;;;;;6151252;23;20185;-85
2022/02/22 18:25:16;;;;;;;12.37;4.07;;;;;;;;;;6135552;23;20595;-86
2022/02/22 18:28:21;;;;;;;9.53;2.73;;;;;;;;;;6117185;23;20177;-86
2022/02/22 18:31:26;;;;;;;8.03;2.70;;;;;;;;;;6134360;23;20472;-86
2022/02/22 18:34:30;;;;;;;11.13;2.53;;;;;;;;;;6153184;23;20153;-86
2022/02/22 18:37:40;;;;;;;8.83;2.23;;;;;;;;;;6151333;23;20574;-86
2022/02/22 18:40:43;;;;;;;7.50;1.97;;;;;;;;;;6117231;23;20154;-86
2022/02/22 18:43:48;;;;;;;9.67;3.33;;;;;;;;;;6163645;23;20196;-86
2022/02/22 18:46:52;;;;;;;10.23;2.10;;;;;;;;;;6163669;23;20157;-86
2022/02/22 18:49:56;;;;;;;7.03;2.20;;;;;;;;;;6170878;23;20483;-86
2022/02/22 18:53:01;;;;;;;7.67;2.20;;;;;;;;;;6173417;23;20649;-87
2022/02/22 18:56:05;;;;;;;7.80;1.83;;;;;;;;;;6162478;23;20153;-86
2022/02/22 18:59:10;;;;;;;9.73;2.03;;;;;;;;;;6162141;23;20152;-86
2022/02/22 19:02:14;;;;;;;8.07;2.50;;;;;;;;;;6151775;23;20188;-88
2022/02/22 19:05:19;;;;;;;10.77;2.30;;;;;;;;;;6185550;23;20173;-87
2022/02/22 19:08:27;;;;;;;6.23;2.03;;;;;;;;;;6168682;23;20192;-85
2022/02/22 19:11:31;;;;;;;13.00;2.53;;;;;;;;;;6162169;23;20157;-85
2022/02/22 19:14:35;;;;;;;10.20;2.50;;;;;;;;;;6178789;23;20153;-86